Guatemala City, Guatemala
Current Conditions -  °F | °C
As of 1:00 AM on Wednesday 26 Nov 2014 (Local Time) from MGGT Reporting Station
Broken Clouds Broken Clouds  
Wind Chill: 66°   Ceiling: 1400
Heat Index: 66°   Visibility: 6mi
Dew Point: 63°   Wind: 16mph
Humidity: 88%   Direction: 20°NNE
Pressure: 30.3"   Gusts: NA
Location:  14.58°N, 90.52°W
Report Text: MGGT 260700Z 02014KT 9999 BKN014 BKN080 19/17 Q1026 A3030
Loading
Personal Weather Stations






























Interactive Weather Map New forecast layout! Learn more

10-Day Weather Forecast

Advertisements
Track Severe Weather on mobile